Time;durP1;ratioP1;P1;durP2;ratioP2;P2;SDS_P1;SDS_P2;PMS_P1;PMS_P2;Temp;Humidity;BMP_temperature;BMP_pressure;BME280_temperature;BME280_humidity;BME280_pressure;Samples;Min_cycle;Max_cycle;Signal;HPM_P1;HPM_P2
2021/11/16 00:02:09;;;;;;;44.73;24.23;;;;;;;4.70;75.87;98290.79;1626711;86;27469;-85
2021/11/16 00:04:36;;;;;;;48.40;24.35;;;;;;;4.66;75.92;98285.39;1626639;86;25860;-84
2021/11/16 00:07:05;;;;;;;43.58;23.35;;;;;;;4.66;75.93;98288.07;1626609;86;25784;-83
2021/11/16 00:09:32;;;;;;;44.15;24.60;;;;;;;4.63;75.96;98287.03;1626582;86;25901;-85
2021/11/16 00:12:00;;;;;;;51.28;26.87;;;;;;;4.61;76.03;98286.34;1626654;86;26363;-85
2021/11/16 00:14:28;;;;;;;45.03;24.10;;;;;;;4.61;76.07;98279.66;1626582;86;27398;-85
2021/11/16 00:16:56;;;;;;;46.20;23.25;;;;;;;4.63;76.11;98279.01;1626533;86;25785;-85
2021/11/16 00:19:22;;;;;;;44.35;24.50;;;;;;;4.64;76.11;98279.35;1626693;86;25857;-85
2021/11/16 00:21:50;;;;;;;47.78;24.32;;;;;;;4.64;76.10;98278.52;1626574;86;25821;-84
2021/11/16 00:24:25;;;;;;;37.63;21.15;;;;;;;4.62;76.06;98273.31;1626252;86;25754;-85
2021/11/16 00:26:48;;;;;;;39.33;22.27;;;;;;;4.60;76.07;98275.30;1626244;86;28722;-86
2021/11/16 00:29:15;;;;;;;37.30;21.68;;;;;;;4.61;76.09;98278.81;1626498;86;25296;-86
2021/11/16 00:31:41;;;;;;;38.10;21.07;;;;;;;4.57;76.08;98278.79;1626550;86;26592;-85
2021/11/16 00:34:08;;;;;;;37.28;21.40;;;;;;;4.56;76.11;98282.45;1626634;86;26419;-85
2021/11/16 00:36:35;;;;;;;40.00;21.70;;;;;;;4.52;76.08;98285.08;1626604;86;25681;-85
2021/11/16 00:39:03;;;;;;;37.95;21.45;;;;;;;4.49;76.09;98278.69;1626567;86;27418;-84
2021/11/16 00:41:30;;;;;;;37.28;21.90;;;;;;;4.47;76.15;98273.49;1626546;86;25849;-85
2021/11/16 00:43:56;;;;;;;40.15;21.33;;;;;;;4.47;76.17;98272.16;1626480;86;25842;-85
2021/11/16 00:46:23;;;;;;;39.42;21.68;;;;;;;4.48;76.19;98278.34;1626617;86;25833;-85
2021/11/16 00:48:49;;;;;;;41.75;21.77;;;;;;;4.43;76.15;98273.47;1626597;86;25730;-86
2021/11/16 00:51:16;;;;;;;40.25;21.57;;;;;;;4.43;76.19;98277.48;1626565;86;27440;-85
2021/11/16 00:53:42;;;;;;;41.33;22.25;;;;;;;4.41;76.25;98274.11;1626298;86;25315;-85
2021/11/16 00:56:11;;;;;;;39.00;21.82;;;;;;;4.39;76.29;98272.08;1626741;86;26367;-85
2021/11/16 00:58:38;;;;;;;43.52;23.15;;;;;;;4.38;76.30;98270.40;1626582;86;26504;-86
2021/11/16 01:01:05;;;;;;;41.45;22.67;;;;;;;4.36;76.35;98267.03;1626679;86;25777;-84
2021/11/16 01:03:32;;;;;;;42.13;22.02;;;;;;;4.37;76.41;98263.37;1626534;86;28165;-85
2021/11/16 01:05:59;;;;;;;38.65;22.48;;;;;;;4.36;76.40;98267.03;1626396;86;26371;-85
2021/11/16 01:08:26;;;;;;;40.05;22.45;;;;;;;4.35;76.44;98270.20;1626595;86;25817;-85
2021/11/16 01:10:54;;;;;;;36.40;22.13;;;;;;;4.36;76.44;98271.04;1626613;86;25819;-85
2021/11/16 01:13:24;;;;;;;35.30;21.85;;;;;;;4.35;76.46;98274.20;1626623;86;25918;-85
2021/11/16 01:15:52;;;;;;;37.80;20.35;;;;;;;4.35;76.42;98274.20;1626610;86;27394;-85
2021/11/16 01:18:22;;;;;;;37.00;21.12;;;;;;;4.27;76.32;98275.47;1626399;86;25822;-84
2021/11/16 01:20:50;;;;;;;35.58;20.23;;;;;;;4.24;76.37;98273.09;1626661;86;25854;-85
2021/11/16 01:23:18;;;;;;;35.25;19.62;;;;;;;4.13;76.34;98269.30;1629354;86;25813;-85
2021/11/16 01:25:47;;;;;;;34.05;19.12;;;;;;;4.11;76.43;98273.09;1668235;85;26546;-84
2021/11/16 01:28:18;;;;;;;31.50;19.15;;;;;;;4.06;76.44;98276.73;1638567;86;27427;-83
2021/11/16 01:30:49;;;;;;;36.55;20.15;;;;;;;4.03;76.49;98277.86;1668650;85;25857;-85
2021/11/16 01:33:25;;;;;;;34.88;18.50;;;;;;;4.01;76.50;98284.34;1638644;86;25818;-84
2021/11/16 01:35:48;;;;;;;33.70;18.98;;;;;;;4.00;76.58;98283.50;1667768;85;25744;-84
2021/11/16 01:38:16;;;;;;;31.90;19.48;;;;;;;3.96;76.56;98289.66;1638598;87;25655;-85
2021/11/16 01:40:45;;;;;;;31.57;19.45;;;;;;;3.93;76.57;98288.61;1668377;85;27396;-84
2021/11/16 01:43:13;;;;;;;33.13;19.52;;;;;;;3.92;76.60;98283.41;1638586;87;25790;-84
2021/11/16 01:45:41;;;;;;;34.65;20.02;;;;;;;3.90;76.65;98284.89;1668394;85;25799;-85
2021/11/16 01:48:09;;;;;;;33.28;19.67;;;;;;;3.90;76.71;98284.89;1638674;87;25770;-85
2021/11/16 01:50:38;;;;;;;38.00;20.70;;;;;;;3.86;76.74;98287.53;1668555;85;25772;-85
2021/11/16 01:53:05;;;;;;;34.38;19.95;;;;;;;3.87;76.81;98280.33;1668384;85;28150;-86
2021/11/16 01:55:32;;;;;;;35.80;20.77;;;;;;;3.88;76.80;98280.67;1638664;87;25808;-86
2021/11/16 01:57:58;;;;;;;36.20;20.75;;;;;;;3.86;76.85;98279.52;1660884;85;26037;-85
2021/11/16 02:00:33;;;;;;;35.03;20.80;;;;;;;3.89;76.91;98276.53;1669707;84;25815;-85
2021/11/16 02:03:01;;;;;;;40.75;21.95;;;;;;;3.92;76.97;98283.41;1638834;86;26193;-86
2021/11/16 02:05:51;;;;;;;42.98;22.95;;;;;;;3.93;77.01;98279.26;1668489;85;27367;-85
2021/11/16 02:08:20;;;;;;;40.00;22.30;;;;;;;3.96;77.01;98288.32;1638601;86;26054;-85
2021/11/16 02:10:50;;;;;;;40.38;23.25;;;;;;;3.98;77.05;98272.95;1668524;85;25811;-85
2021/11/16 02:13:20;;;;;;;36.33;21.93;;;;;;;3.99;77.01;98273.30;1638794;86;25789;-85
2021/11/16 02:15:49;;;;;;;38.70;22.32;;;;;;;4.02;77.00;98279.34;1668537;85;25728;-85
2021/11/16 02:18:16;;;;;;;38.38;22.35;;;;;;;4.04;76.96;98274.20;1638538;86;27445;-85
2021/11/16 02:20:47;;;;;;;42.83;22.55;;;;;;;4.05;76.92;98273.71;1668529;85;25813;-85
2021/11/16 02:23:14;;;;;;;41.35;22.15;;;;;;;4.05;76.83;98273.71;1637904;86;25889;-85
2021/11/16 02:25:44;;;;;;;39.40;23.05;;;;;;;4.04;76.85;98273.36;1616087;86;25748;-84
2021/11/16 02:28:10;;;;;;;34.92;21.45;;;;;;;4.04;76.85;98274.70;1612142;87;25786;-85
2021/11/16 02:30:36;;;;;;;38.50;22.58;;;;;;;4.03;76.85;98270.34;1612115;87;27417;-85
2021/11/16 02:33:03;;;;;;;41.05;23.15;;;;;;;4.02;76.84;98268.16;1611954;87;25866;-85
2021/11/16 02:35:30;;;;;;;42.78;23.67;;;;;;;4.00;76.79;98274.15;1612048;87;25819;-85
2021/11/16 02:37:57;;;;;;;46.58;24.18;;;;;;;4.01;76.85;98273.66;1612079;87;26685;-85
2021/11/16 02:40:25;;;;;;;40.25;23.35;;;;;;;4.01;76.86;98270.98;1615852;87;25831;-85
2021/11/16 02:42:54;;;;;;;40.45;23.32;;;;;;;4.01;76.85;98274.98;1608477;87;27484;-85
2021/11/16 02:45:22;;;;;;;39.27;22.85;;;;;;;4.03;76.84;98267.67;1612022;87;25793;-84
2021/11/16 02:47:48;;;;;;;43.45;23.77;;;;;;;4.02;76.75;98256.14;1612002;87;25830;-84
2021/11/16 02:50:17;;;;;;;39.50;23.05;;;;;;;4.04;76.75;98257.33;1612048;87;25746;-84
2021/11/16 02:52:43;;;;;;;40.10;23.35;;;;;;;4.02;76.74;98252.14;1612000;87;25778;-84
2021/11/16 02:55:10;;;;;;;39.67;22.30;;;;;;;4.04;76.72;98254.66;1612052;87;28187;-84
2021/11/16 02:57:37;;;;;;;34.58;21.20;;;;;;;4.02;76.73;98249.95;1612007;87;25874;-84
2021/11/16 03:00:09;;;;;;;38.67;21.73;;;;;;;4.02;76.71;98249.46;1612068;87;25746;-85
2021/11/16 03:02:36;;;;;;;42.00;23.10;;;;;;;4.01;76.67;98247.78;1611983;87;26595;-84
2021/11/16 03:05:03;;;;;;;40.98;22.07;;;;;;;3.99;76.68;98247.92;1612098;87;25807;-84
2021/11/16 03:07:34;;;;;;;39.88;22.55;;;;;;;3.99;76.65;98250.59;1611933;88;27392;-84
2021/11/16 03:10:02;;;;;;;35.17;20.77;;;;;;;3.95;76.61;98249.23;1611880;87;25722;-84
2021/11/16 03:12:30;;;;;;;35.55;20.70;;;;;;;3.94;76.66;98242.21;1612095;87;25896;-85
2021/11/16 03:14:58;;;;;;;36.28;21.30;;;;;;;3.96;76.66;98240.23;1611985;87;25863;-85
2021/11/16 03:17:26;;;;;;;34.25;19.95;;;;;;;3.97;76.62;98239.25;1612264;87;25763;-84
2021/11/16 03:19:52;;;;;;;31.48;19.25;;;;;;;3.96;76.56;98232.72;1611991;87;27417;-85
2021/11/16 03:22:24;;;;;;;32.35;18.75;;;;;;;3.90;76.47;98232.80;1615482;87;25711;-84
2021/11/16 03:24:49;;;;;;;33.73;19.60;;;;;;;3.84;76.50;98235.24;1619246;87;25739;-84
2021/11/16 03:27:17;;;;;;;34.35;19.40;;;;;;;3.79;76.52;98232.17;1611293;88;26041;-84
2021/11/16 03:29:47;;;;;;;33.00;18.90;;;;;;;3.75;76.55;98238.78;1611567;88;25774;-84
2021/11/16 03:32:15;;;;;;;32.88;18.23;;;;;;;3.72;76.60;98236.44;1611251;88;27572;-84
2021/11/16 03:34:48;;;;;;;31.95;17.37;;;;;;;3.71;76.60;98236.92;1611390;88;25835;-84
2021/11/16 03:37:18;;;;;;;31.50;18.73;;;;;;;3.70;76.65;98233.91;1611606;88;25827;-85
2021/11/16 03:39:45;;;;;;;31.25;18.48;;;;;;;3.68;76.64;98233.20;1611524;88;25698;-85
2021/11/16 03:42:13;;;;;;;33.65;18.82;;;;;;;3.64;76.61;98234.48;1611561;88;25732;-85
2021/11/16 03:44:40;;;;;;;32.20;18.27;;;;;;;3.61;76.65;98222.78;1611463;88;27420;-85
2021/11/16 03:47:07;;;;;;;31.68;18.62;;;;;;;3.59;76.69;98224.76;1611528;88;25938;-84
2021/11/16 03:49:33;;;;;;;35.38;18.95;;;;;;;3.59;76.73;98227.42;1611507;88;25802;-85
2021/11/16 03:52:00;;;;;;;33.90;19.27;;;;;;;3.58;76.72;98229.75;1611439;88;26012;-85
2021/11/16 03:54:27;;;;;;;35.15;20.30;;;;;;;3.55;76.74;98227.36;1611622;88;25989;-85
2021/11/16 03:57:00;;;;;;;33.70;18.87;;;;;;;3.54;76.76;98228.34;1611574;88;27490;-85
2021/11/16 03:59:22;;;;;;;31.60;18.82;;;;;;;3.52;76.75;98232.50;1610705;88;25859;-85
2021/11/16 04:01:48;;;;;;;30.92;17.55;;;;;;;3.43;76.73;98225.87;1611524;88;25796;-84
2021/11/16 04:04:18;;;;;;;29.55;17.52;;;;;;;3.37;76.74;98222.47;1611397;88;25795;-84
2021/11/16 04:06:43;;;;;;;30.75;18.12;;;;;;;3.32;76.82;98218.05;1611332;87;25702;-85
2021/11/16 04:09:10;;;;;;;31.80;17.73;;;;;;;3.23;76.84;98220.62;1611514;88;28257;-84
2021/11/16 04:11:37;;;;;;;30.92;17.15;;;;;;;3.22;76.95;98224.27;1611520;88;25842;-85
2021/11/16 04:14:04;;;;;;;30.15;17.45;;;;;;;3.19;76.96;98224.55;1611285;88;25281;-84
2021/11/16 04:16:31;;;;;;;28.83;18.05;;;;;;;3.18;76.96;98227.36;1611580;88;25725;-85
2021/11/16 04:18:58;;;;;;;28.60;16.37;;;;;;;3.15;77.00;98219.64;1611607;88;25835;-84
2021/11/16 04:21:25;;;;;;;26.93;15.63;;;;;;;3.12;77.02;98212.79;1611485;88;27411;-85
2021/11/16 04:23:51;;;;;;;30.92;17.85;;;;;;;3.12;77.10;98219.95;1611307;88;25830;-84
2021/11/16 04:26:18;;;;;;;31.35;17.98;;;;;;;3.12;77.11;98219.46;1607399;87;25787;-85
2021/11/16 04:28:44;;;;;;;27.82;17.45;;;;;;;3.12;77.14;98220.80;1607662;87;25753;-85
2021/11/16 04:31:11;;;;;;;29.55;17.65;;;;;;;3.11;77.10;98221.78;1607746;87;25907;-84
2021/11/16 04:33:38;;;;;;;33.38;19.85;;;;;;;3.09;77.09;98219.74;1607681;87;27458;-84
2021/11/16 04:36:05;;;;;;;36.48;19.90;;;;;;;3.09;77.11;98219.74;1607618;88;25870;-84
2021/11/16 04:38:32;;;;;;;31.75;19.20;;;;;;;3.11;77.19;98219.11;1607679;87;25838;-84
2021/11/16 04:41:01;;;;;;;29.42;17.62;;;;;;;3.13;77.16;98215.81;1607715;87;26283;-84
2021/11/16 04:43:29;;;;;;;27.22;16.97;;;;;;;3.09;77.10;98210.41;1607756;87;25835;-84
2021/11/16 04:46:03;;;;;;;27.30;16.95;;;;;;;3.08;77.09;98214.06;1607730;87;27414;-84
2021/11/16 04:51:44;;;;;;;31.55;19.85;;;;;;;3.09;77.18;98213.08;1609187;87;26376;-84
2021/11/16 05:04:54;;;;;;;33.18;19.52;;;;;;;3.11;77.13;98216.94;1607626;87;26416;-84
2021/11/16 05:07:23;;;;;;;32.30;19.55;;;;;;;3.12;77.10;98215.46;1607646;87;26485;-83
2021/11/16 05:09:54;;;;;;;35.33;21.07;;;;;;;3.14;77.07;98217.47;1607633;87;25731;-83
2021/11/16 05:12:25;;;;;;;35.52;20.08;;;;;;;3.18;77.02;98220.20;1607740;87;27353;-85
2021/11/16 05:14:54;;;;;;;37.88;21.33;;;;;;;3.21;76.99;98223.92;1607566;87;25980;-83
2021/11/16 05:17:21;;;;;;;33.40;20.17;;;;;;;3.20;76.81;98222.23;1624417;87;26352;-86
2021/11/16 05:19:48;;;;;;;31.60;19.87;;;;;;;3.15;76.62;98223.15;1639457;87;26438;-84
2021/11/16 05:22:14;;;;;;;31.93;20.55;;;;;;;3.11;76.53;98223.11;1639494;87;25838;-85
2021/11/16 05:24:41;;;;;;;32.03;20.35;;;;;;;3.06;76.43;98230.69;1639978;87;27454;-83
2021/11/16 05:27:11;;;;;;;34.33;20.92;;;;;;;2.99;76.38;98234.94;1642159;87;25920;-83
2021/11/16 05:29:37;;;;;;;32.67;19.62;;;;;;;2.89;76.25;98234.12;1656711;86;25817;-84
2021/11/16 05:32:05;;;;;;;31.73;19.17;;;;;;;2.80;76.31;98235.80;1656752;86;25747;-84
2021/11/16 05:34:31;;;;;;;36.48;21.73;;;;;;;2.77;76.44;98229.92;1643688;87;25923;-84
2021/11/16 05:36:58;;;;;;;30.43;18.95;;;;;;;2.73;76.48;98236.02;1643669;87;27465;-85
2021/11/16 05:39:25;;;;;;;28.23;17.42;;;;;;;2.70;76.54;98235.45;1643499;87;25799;-84
2021/11/16 05:41:51;;;;;;;27.30;17.70;;;;;;;2.72;76.54;98249.49;1641544;87;25727;-84
2021/11/16 05:44:19;;;;;;;28.57;17.82;;;;;;;2.71;76.45;98243.31;1650737;86;26448;-84
2021/11/16 05:46:46;;;;;;;26.95;18.80;;;;;;;2.70;76.47;98248.79;1642291;86;25679;-84
2021/11/16 05:49:12;;;;;;;30.88;18.73;;;;;;;2.71;76.51;98245.14;1606433;87;27428;-84
2021/11/16 05:51:39;;;;;;;30.27;18.40;;;;;;;2.72;76.45;98245.00;1643602;87;25745;-84
2021/11/16 05:54:07;;;;;;;29.37;18.35;;;;;;;2.71;76.45;98251.80;1643706;87;25805;-84
2021/11/16 05:56:37;;;;;;;32.30;18.23;;;;;;;2.69;76.40;98254.61;1641510;87;25776;-84
2021/11/16 05:59:04;;;;;;;29.95;17.50;;;;;;;2.68;76.44;98254.75;1656778;86;25736;-83
2021/11/16 06:01:34;;;;;;;28.35;18.90;;;;;;;2.67;76.31;98258.39;1656725;86;28190;-84
2021/11/16 06:04:01;;;;;;;29.42;18.75;;;;;;;2.62;76.24;98258.84;1643709;87;25930;-84
2021/11/16 06:06:31;;;;;;;34.75;20.40;;;;;;;2.59;76.04;98255.59;1639046;87;25852;-84
2021/11/16 06:09:00;;;;;;;31.50;18.62;;;;;;;2.57;76.05;98260.22;1616181;88;25814;-84
2021/11/16 06:11:27;;;;;;;32.17;18.82;;;;;;;2.53;76.04;98260.53;1612154;87;25816;-84
2021/11/16 06:13:55;;;;;;;32.70;18.87;;;;;;;2.51;76.08;98258.48;1612101;87;27403;-84
2021/11/16 06:16:23;;;;;;;31.50;18.42;;;;;;;2.46;75.94;98254.55;1611874;88;25977;-84
2021/11/16 06:18:59;;;;;;;32.05;20.32;;;;;;;2.39;76.02;98258.77;1612049;87;25366;-84
2021/11/16 06:21:27;;;;;;;34.38;20.52;;;;;;;2.34;76.11;98260.50;1612027;87;26322;-84
2021/11/16 06:23:54;;;;;;;33.80;20.40;;;;;;;2.32;76.18;98263.79;1612015;87;25793;-83
2021/11/16 06:26:22;;;;;;;36.53;22.90;;;;;;;2.32;76.25;98265.13;1612574;87;27442;-84
2021/11/16 06:28:50;;;;;;;42.58;23.77;;;;;;;2.33;76.28;98260.64;1612896;87;25950;-83
2021/11/16 06:31:20;;;;;;;41.30;24.92;;;;;;;2.32;76.30;98265.13;1613061;87;26897;-83
2021/11/16 06:33:45;;;;;;;37.78;24.87;;;;;;;2.34;76.39;98265.83;1612691;87;25787;-83
2021/11/16 06:36:12;;;;;;;41.13;23.30;;;;;;;2.36;76.40;98266.54;1613007;87;25721;-83
2021/11/16 06:38:38;;;;;;;35.68;22.80;;;;;;;2.32;76.45;98270.45;1612879;87;27455;-84
2021/11/16 06:41:05;;;;;;;30.15;18.40;;;;;;;2.32;76.54;98262.45;1612934;88;25844;-83
2021/11/16 06:43:35;;;;;;;26.40;15.50;;;;;;;2.29;76.59;98262.76;1612876;87;25756;-83
2021/11/16 06:46:04;;;;;;;25.27;14.23;;;;;;;2.29;76.64;98263.25;1612961;88;25765;-83
2021/11/16 06:48:31;;;;;;;24.72;14.68;;;;;;;2.28;76.69;98265.56;1613013;87;25828;-83
2021/11/16 06:50:59;;;;;;;22.00;14.45;;;;;;;2.27;76.71;98264.72;1622162;87;27410;-83
2021/11/16 06:53:34;;;;;;;23.20;14.15;;;;;;;2.29;76.69;98264.58;1656617;86;25740;-82
2021/11/16 06:56:04;;;;;;;26.75;14.43;;;;;;;2.27;76.65;98263.38;1656348;86;25451;-83
2021/11/16 06:58:34;;;;;;;23.47;14.75;;;;;;;2.23;76.62;98263.30;1643679;86;26132;-83
2021/11/16 07:01:04;;;;;;;23.12;14.45;;;;;;;2.22;76.66;98268.27;1643779;87;25745;-82
2021/11/16 07:03:31;;;;;;;24.18;15.43;;;;;;;2.22;76.69;98276.27;1641534;87;27400;-83
2021/11/16 07:06:02;;;;;;;25.52;14.00;;;;;;;2.20;76.67;98279.55;1656640;86;25880;-84
2021/11/16 07:08:41;;;;;;;24.10;14.28;;;;;;;2.20;76.73;98287.54;1611786;86;25792;-84
2021/11/16 07:11:20;;;;;;;24.55;14.05;;;;;;;2.22;76.74;98290.91;1587516;89;25853;-84
2021/11/16 07:14:07;;;;;;;25.17;14.83;;;;;;;2.21;76.68;98287.05;1598054;88;25744;-83
2021/11/16 07:16:56;;;;;;;22.13;14.25;;;;;;;2.20;76.76;98288.03;1612054;87;27424;-83
2021/11/16 07:19:37;;;;;;;25.17;15.83;;;;;;;2.22;76.77;98288.25;1611839;87;25874;-83
2021/11/16 07:22:09;;;;;;;27.13;17.42;;;;;;;2.25;76.77;98289.31;1611250;87;25831;-83
2021/11/16 07:24:58;;;;;;;31.25;17.87;;;;;;;2.27;76.64;98287.84;1610578;87;25669;-83
2021/11/16 07:27:36;;;;;;;29.75;17.82;;;;;;;2.22;76.52;98288.25;1597969;88;25783;-83
2021/11/16 07:30:08;;;;;;;34.00;19.55;;;;;;;2.24;76.68;98282.30;1611656;87;28262;-84
2021/11/16 07:32:48;;;;;;;29.67;18.90;;;;;;;2.28;76.66;98289.05;1611991;87;26005;-84
2021/11/16 07:35:17;;;;;;;30.23;18.50;;;;;;;2.33;76.66;98288.61;1611972;87;25850;-84
2021/11/16 07:37:47;;;;;;;29.25;17.57;;;;;;;2.36;76.63;98294.52;1611900;87;25771;-84
2021/11/16 07:40:19;;;;;;;27.50;16.77;;;;;;;2.37;76.59;98292.20;1612017;87;25756;-84
2021/11/16 07:42:59;;;;;;;28.30;18.40;;;;;;;2.41;76.56;98292.29;1612116;87;26877;-84
2021/11/16 07:45:36;;;;;;;32.73;19.95;;;;;;;2.43;76.37;98290.30;1611836;87;25847;-84
2021/11/16 07:48:08;;;;;;;32.33;19.25;;;;;;;2.48;76.45;98289.41;1611908;87;25863;-84
2021/11/16 07:50:54;;;;;;;30.50;19.23;;;;;;;2.48;76.20;98292.08;1611968;87;25852;-84
2021/11/16 07:53:34;;;;;;;31.60;18.98;;;;;;;2.50;76.28;98294.12;1612126;87;25804;-84
2021/11/16 07:56:12;;;;;;;34.45;19.45;;;;;;;2.54;76.51;98298.16;1611919;87;27505;-84
2021/11/16 07:58:52;;;;;;;29.05;19.25;;;;;;;2.66;76.53;98298.03;1611914;88;26121;-85
2021/11/16 08:04:26;;;;;;;26.25;17.10;;;;;;;2.83;76.26;98298.17;1569671;90;26553;-84
2021/11/16 08:09:42;;;;;;;25.70;16.75;;;;;;;3.02;76.09;98294.64;1569616;90;28292;-84
2021/11/16 08:14:58;;;;;;;26.90;16.15;;;;;;;3.40;75.85;98284.88;1569768;90;26419;-85
2021/11/16 08:17:25;;;;;;;23.92;14.80;;;;;;;3.57;75.75;98286.80;1567984;90;26626;-85
2021/11/16 08:19:59;;;;;;;24.37;14.55;;;;;;;3.81;75.61;98288.45;1569547;90;25954;-85
2021/11/16 08:22:26;;;;;;;22.58;14.83;;;;;;;3.98;75.36;98282.30;1568978;90;28374;-85
2021/11/16 08:24:55;;;;;;;23.20;14.78;;;;;;;4.10;75.21;98282.98;1569653;90;25886;-85
2021/11/16 08:27:29;;;;;;;22.90;15.18;;;;;;;4.21;74.97;98284.59;1566163;90;25882;-85
2021/11/16 08:30:07;;;;;;;24.07;15.23;;;;;;;4.31;74.74;98281.36;1564829;90;25773;-85
2021/11/16 08:32:38;;;;;;;26.25;15.45;;;;;;;4.36;74.50;98283.06;1565943;90;25990;-85
2021/11/16 08:35:16;;;;;;;25.32;15.63;;;;;;;4.42;74.40;98280.30;1565917;90;27476;-85
2021/11/16 08:37:44;;;;;;;25.30;15.83;;;;;;;4.44;74.18;98275.16;1565848;90;25966;-85
2021/11/16 08:40:21;;;;;;;22.10;15.93;;;;;;;4.45;74.20;98272.83;1568680;87;25951;-85
2021/11/16 08:43:12;;;;;;;22.80;13.48;;;;;;;4.54;74.15;98272.41;1607755;87;25844;-84
2021/11/16 08:45:37;;;;;;;22.13;13.78;;;;;;;4.71;74.03;98260.34;1607184;87;25794;-85
2021/11/16 08:48:17;;;;;;;23.45;14.73;;;;;;;4.79;73.82;98262.27;1607769;87;27424;-85
2021/11/16 08:51:07;;;;;;;26.57;14.55;;;;;;;4.87;73.59;98257.48;1626701;87;25886;-85
2021/11/16 08:53:36;;;;;;;26.70;14.93;;;;;;;4.95;73.46;98260.23;1653499;86;25781;-85
2021/11/16 08:56:17;;;;;;;24.72;14.87;;;;;;;5.10;73.19;98262.67;1653710;86;25823;-84
2021/11/16 08:58:44;;;;;;;24.23;14.98;;;;;;;5.22;72.88;98257.91;1642932;86;25686;-86
2021/11/16 09:01:14;;;;;;;22.73;14.85;;;;;;;5.46;73.07;98248.69;1642970;87;27390;-86
2021/11/16 09:03:45;;;;;;;22.05;15.83;;;;;;;5.75;73.06;98248.34;1641677;87;25778;-86
2021/11/16 09:06:19;;;;;;;26.82;16.12;;;;;;;6.03;72.25;98239.63;1651952;86;25820;-85
2021/11/16 09:09:03;;;;;;;25.17;14.90;;;;;;;6.20;72.05;98248.53;1621052;86;26459;-85
2021/11/16 09:11:29;;;;;;;24.02;15.15;;;;;;;6.41;71.62;98243.05;1582514;89;25784;-86
2021/11/16 09:13:56;;;;;;;23.67;15.53;;;;;;;6.45;70.61;98237.70;1612045;87;27361;-86
2021/11/16 09:16:30;;;;;;;27.35;15.70;;;;;;;6.51;71.02;98237.56;1611861;87;25731;-87
2021/11/16 09:18:58;;;;;;;23.60;14.90;;;;;;;6.78;71.27;98234.55;1632039;87;25818;-87
2021/11/16 09:21:38;;;;;;;22.45;15.58;;;;;;;7.10;70.94;98232.87;1653805;86;25835;-87
2021/11/16 09:24:10;;;;;;;21.93;14.58;;;;;;;7.37;70.97;98229.78;1653877;86;25689;-86
2021/11/16 09:26:59;;;;;;;23.45;15.32;;;;;;;7.78;70.73;98220.27;1643239;86;28019;-87
2021/11/16 09:29:24;;;;;;;26.70;15.53;;;;;;;8.17;70.23;98225.65;1642910;86;25773;-87
2021/11/16 09:31:59;;;;;;;23.15;14.47;;;;;;;8.46;69.57;98223.64;1641357;87;25737;-88
2021/11/16 09:34:30;;;;;;;21.00;14.80;;;;;;;8.73;69.28;98211.01;1656369;86;25925;-87
2021/11/16 09:37:05;;;;;;;24.05;14.43;;;;;;;8.99;68.72;98206.08;1656988;86;25809;-88
2021/11/16 09:39:40;;;;;;;22.30;14.80;;;;;;;9.37;68.03;98208.75;1643703;87;27381;-87
2021/11/16 09:42:11;;;;;;;27.05;15.25;;;;;;;9.85;67.63;98209.23;1643652;86;25752;-88
2021/11/16 09:44:45;;;;;;;23.27;14.15;;;;;;;10.28;67.14;98212.39;1643771;87;25823;-88
2021/11/16 09:47:23;;;;;;;19.82;13.95;;;;;;;10.31;66.74;98208.48;1640672;87;25777;-87
2021/11/16 09:49:57;;;;;;;21.77;15.95;;;;;;;10.07;65.70;98209.10;1624600;87;25890;-87
2021/11/16 09:52:45;;;;;;;23.98;16.37;;;;;;;9.75;64.96;98206.31;1656659;86;27352;-88
2021/11/16 09:55:34;;;;;;;25.27;16.97;;;;;;;9.46;65.37;98205.45;1656545;85;26453;-88
2021/11/16 09:58:05;;;;;;;25.35;16.00;;;;;;;9.24;65.19;98195.08;1646637;86;26079;-85
2021/11/16 10:00:41;;;;;;;24.35;16.40;;;;;;;8.96;65.43;98198.87;1643605;86;26452;-86
2021/11/16 10:03:16;;;;;;;24.63;16.57;;;;;;;8.88;65.74;98201.13;1643642;87;25681;-88
2021/11/16 10:05:48;;;;;;;21.77;15.18;;;;;;;8.79;65.63;98196.84;1641208;87;27365;-88
2021/11/16 10:08:17;;;;;;;23.62;15.40;;;;;;;8.70;65.54;98193.02;1652992;86;26490;-88
2021/11/16 10:10:54;;;;;;;21.90;14.15;;;;;;;8.61;65.67;98189.57;1646569;85;25876;-86
2021/11/16 10:13:25;;;;;;;19.35;14.70;;;;;;;8.60;65.76;98183.86;1624905;87;25827;-87
2021/11/16 10:15:55;;;;;;;18.27;13.72;;;;;;;8.42;65.37;98181.48;1622536;86;25460;-87
2021/11/16 10:18:25;;;;;;;23.75;13.83;;;;;;;8.20;65.25;98179.08;1643649;87;28018;-87
2021/11/16 10:20:53;;;;;;;20.20;14.43;;;;;;;8.13;65.62;98180.78;1641592;87;25802;-87
2021/11/16 10:23:33;;;;;;;21.02;14.90;;;;;;;8.01;65.29;98175.47;1656917;86;25793;-87
2021/11/16 10:26:02;;;;;;;21.57;15.25;;;;;;;7.91;65.82;98170.83;1656750;85;26562;-87
2021/11/16 10:28:33;;;;;;;26.17;15.70;;;;;;;7.94;66.06;98169.14;1643549;87;25811;-87
2021/11/16 10:31:01;;;;;;;22.85;15.68;;;;;;;7.98;65.77;98169.09;1643734;87;28103;-87
2021/11/16 10:33:37;;;;;;;26.97;15.90;;;;;;;7.99;65.85;98163.22;1643603;87;26163;-87
2021/11/16 10:36:11;;;;;;;21.93;15.40;;;;;;;7.99;66.04;98159.18;1641635;87;25353;-86
2021/11/16 10:38:53;;;;;;;26.82;17.02;;;;;;;7.99;66.01;98157.33;1656829;86;26374;-87
2021/11/16 10:41:27;;;;;;;24.33;15.77;;;;;;;7.99;65.96;98152.45;1657009;86;25727;-87
2021/11/16 10:44:03;;;;;;;26.07;15.90;;;;;;;8.00;65.96;98151.45;1656683;86;29273;-87
2021/11/16 10:46:38;;;;;;;25.02;15.13;;;;;;;8.03;65.86;98149.25;1656752;86;25766;-87
2021/11/16 10:49:12;;;;;;;24.75;15.32;;;;;;;8.04;66.02;98156.30;1656868;85;25699;-88
2021/11/16 10:51:41;;;;;;;28.92;16.60;;;;;;;8.03;65.82;98151.94;1656768;85;25865;-88
2021/11/16 10:54:11;;;;;;;25.20;17.40;;;;;;;8.04;65.91;98150.93;1635649;86;25321;-87
2021/11/16 10:56:40;;;;;;;29.72;17.00;;;;;;;8.06;65.85;98150.25;1656859;86;27398;-87
2021/11/16 10:59:14;;;;;;;32.50;19.45;;;;;;;8.07;65.93;98151.09;1656769;85;25840;-88
2021/11/16 11:01:53;;;;;;;32.03;17.92;;;;;;;8.09;65.89;98148.53;1638773;85;25777;-88
2021/11/16 11:04:27;;;;;;;26.55;19.00;;;;;;;8.10;65.76;98144.83;1639195;86;26323;-87
2021/11/16 11:06:53;;;;;;;31.95;16.50;;;;;;;8.12;65.93;98140.11;1646362;86;26486;-87
2021/11/16 11:09:22;;;;;;;26.73;18.32;;;;;;;8.13;65.89;98144.48;1626597;86;27924;-87
2021/11/16 11:11:52;;;;;;;25.30;17.57;;;;;;;8.14;65.83;98139.44;1626657;86;25363;-88
2021/11/16 11:14:38;;;;;;;28.45;17.92;;;;;;;8.11;65.78;98134.40;1626338;86;25804;-87
2021/11/16 11:17:09;;;;;;;29.10;17.95;;;;;;;8.11;65.53;98134.91;1635066;86;25784;-87
2021/11/16 11:19:40;;;;;;;28.85;19.37;;;;;;;8.06;65.57;98137.31;1656852;86;25763;-88
2021/11/16 11:22:16;;;;;;;30.08;17.95;;;;;;;8.07;65.63;98131.76;1656881;85;27220;-87
2021/11/16 11:27:55;;;;;;;28.92;19.17;;;;;;;8.14;65.51;98128.67;1656356;86;25858;-88
2021/11/16 11:30:19;;;;;;;32.35;19.42;;;;;;;8.17;65.57;98126.14;1654844;86;26494;-87
2021/11/16 11:32:49;;;;;;;33.73;20.60;;;;;;;8.18;65.20;98119.75;1656692;85;25821;-87
2021/11/16 11:35:20;;;;;;;33.02;21.82;;;;;;;8.08;65.22;98124.53;1656765;86;27400;-86
2021/11/16 11:37:52;;;;;;;37.20;21.52;;;;;;;8.05;65.66;98119.50;1656688;85;25767;-87
2021/11/16 11:40:35;;;;;;;35.17;22.48;;;;;;;8.05;65.60;98120.34;1656360;86;37212;-87
2021/11/16 11:43:09;;;;;;;32.90;21.90;;;;;;;8.03;65.60;98121.02;1657000;85;25756;-87
2021/11/16 11:45:43;;;;;;;35.43;20.88;;;;;;;8.05;65.66;98120.34;1656419;86;25770;-86
2021/11/16 11:48:21;;;;;;;33.50;19.70;;;;;;;8.06;65.75;98122.02;1656740;86;27396;-87
2021/11/16 11:50:58;;;;;;;32.53;20.15;;;;;;;8.09;65.61;98113.57;1656651;86;25811;-86
2021/11/16 11:53:33;;;;;;;30.12;19.50;;;;;;;8.10;65.55;98109.03;1656719;86;25783;-87
2021/11/16 11:56:02;;;;;;;35.63;21.27;;;;;;;8.10;65.65;98099.62;1655721;86;25970;-87
2021/11/16 11:58:33;;;;;;;34.27;20.52;;;;;;;8.10;65.53;98093.73;1656766;86;25811;-87
2021/11/16 12:01:07;;;;;;;37.08;22.82;;;;;;;8.06;65.49;98088.41;1656686;85;28336;-86
2021/11/16 12:03:37;;;;;;;36.98;21.73;;;;;;;8.10;65.68;98084.33;1656501;86;25888;-87
2021/11/16 12:06:04;;;;;;;33.30;21.45;;;;;;;8.17;65.65;98083.95;1656351;86;25888;-87